Alamogordo/Holloman AFB, New Mexico
Current Conditions -  °F | °C
As of 7:58 PM on Wednesday 17 Dec 2014 (Local Time) from KHMN Reporting Station
Broken Clouds Broken Clouds  
Wind Chill: 44°   Ceiling: 7000
Heat Index: 49°   Visibility: 10mi
Dew Point: 33°   Wind: 12mph
Humidity: 55%   Direction: 190°S
Pressure: 30.08"   Gusts: NA
Location:  32.85°N, 106.1°W
Report Text: KHMN 180258Z AUTO 19010KT 10SM BKN070 09/01 A3008 RMK AO2 SLP169 T00940007 52021 $
Loading
Personal Weather Stations






























Interactive Weather Map New forecast layout! Learn more

10-Day Weather Forecast

Advertisements
Track Severe Weather on mobile